Time;durP1;ratioP1;P1;durP2;ratioP2;P2;SDS_P1;SDS_P2;PMS_P1;PMS_P2;Temp;Humidity;BMP_temperature;BMP_pressure;BME280_temperature;BME280_humidity;BME280_pressure;Samples;Min_cycle;Max_cycle;Signal;HPM_P1;HPM_P2
2020/12/27 00:01:46;;;;;;;9.75;5.50;;;-2.20;99.90;;;;;;1890060;74;21046;-74
2020/12/27 00:04:12;;;;;;;8.65;5.22;;;-2.20;99.90;;;;;;1894950;74;21074;-74
2020/12/27 00:06:39;;;;;;;7.25;4.62;;;-2.40;99.90;;;;;;1879882;74;21074;-74
2020/12/27 00:09:05;;;;;;;8.60;4.95;;;-2.40;99.90;;;;;;1885464;73;21144;-74
2020/12/27 00:11:31;;;;;;;7.50;3.72;;;-2.50;99.90;;;;;;1898529;74;21082;-73
2020/12/27 00:13:57;;;;;;;7.37;4.30;;;-2.50;99.90;;;;;;1884250;74;21068;-75
2020/12/27 00:16:23;;;;;;;7.83;4.40;;;-2.50;99.90;;;;;;1884880;74;21081;-74
2020/12/27 00:18:49;;;;;;;6.28;3.62;;;-2.50;99.90;;;;;;1893120;74;21505;-75
2020/12/27 00:21:15;;;;;;;6.28;3.95;;;-2.40;99.90;;;;;;1888958;74;21608;-73
2020/12/27 00:23:41;;;;;;;6.30;4.08;;;-2.30;99.90;;;;;;1892356;74;21522;-74
2020/12/27 00:26:08;;;;;;;3.87;3.27;;;-2.40;99.90;;;;;;1892097;74;21173;-76
2020/12/27 00:28:34;;;;;;;9.63;3.50;;;-2.30;99.90;;;;;;1895099;74;21144;-74
2020/12/27 00:31:00;;;;;;;10.00;3.98;;;-2.40;99.90;;;;;;1894078;73;21083;-74
2020/12/27 00:33:26;;;;;;;6.80;3.92;;;-2.40;99.90;;;;;;1878651;75;21152;-74
2020/12/27 00:35:52;;;;;;;10.08;4.15;;;-2.40;99.90;;;;;;1891093;74;21070;-75
2020/12/27 00:38:18;;;;;;;6.05;4.05;;;-2.40;99.90;;;;;;1880978;74;21140;-75
2020/12/27 00:40:44;;;;;;;8.93;4.45;;;-2.50;99.90;;;;;;1884662;74;21078;-75
2020/12/27 00:43:10;;;;;;;8.80;4.53;;;-2.50;99.90;;;;;;1893487;73;21147;-76
2020/12/27 00:45:37;;;;;;;7.12;3.98;;;-2.50;99.90;;;;;;1896077;73;21078;-75
2020/12/27 00:48:03;;;;;;;7.50;4.22;;;-2.50;99.90;;;;;;1894780;74;21043;-74
2020/12/27 00:50:29;;;;;;;10.13;3.20;;;-2.50;99.90;;;;;;1888479;73;21069;-75
2020/12/27 00:52:55;;;;;;;5.50;3.87;;;-2.50;99.90;;;;;;1890101;74;21070;-74
2020/12/27 00:55:21;;;;;;;8.95;4.60;;;-2.40;99.90;;;;;;1888655;74;21232;-74
2020/12/27 00:57:47;;;;;;;11.35;3.77;;;-2.60;99.90;;;;;;1885162;74;21140;-74
2020/12/27 01:00:13;;;;;;;10.60;4.28;;;-2.60;99.90;;;;;;1895557;73;21159;-74
2020/12/27 01:02:39;;;;;;;6.15;3.70;;;-2.60;99.90;;;;;;1884153;74;21152;-73
2020/12/27 01:05:05;;;;;;;8.55;4.08;;;-2.60;99.90;;;;;;1884405;74;21533;-75
2020/12/27 01:07:32;;;;;;;8.03;4.10;;;-2.70;99.90;;;;;;1881088;74;21506;-74
2020/12/27 01:09:58;;;;;;;8.55;4.15;;;-2.60;99.90;;;;;;1892946;74;21454;-75
2020/12/27 01:12:24;;;;;;;5.60;3.33;;;-2.60;99.90;;;;;;1898778;74;21478;-75
2020/12/27 01:14:50;;;;;;;6.70;4.03;;;-2.60;99.90;;;;;;1899771;74;21143;-74
2020/12/27 01:17:16;;;;;;;12.60;3.98;;;-2.70;99.90;;;;;;1879879;74;21067;-74
2020/12/27 01:19:42;;;;;;;6.65;4.12;;;-2.60;99.90;;;;;;1885123;74;21030;-73
2020/12/27 01:22:08;;;;;;;9.45;4.28;;;-2.60;99.90;;;;;;1891600;74;21200;-74
2020/12/27 01:24:34;;;;;;;6.50;3.77;;;-2.60;99.90;;;;;;1887837;74;21122;-74
2020/12/27 01:27:01;;;;;;;7.17;3.65;;;-2.60;99.90;;;;;;1888213;74;21077;-74
2020/12/27 01:29:27;;;;;;;10.05;4.10;;;-2.70;99.90;;;;;;1886464;74;21066;-74
2020/12/27 01:31:53;;;;;;;5.00;3.45;;;-2.70;99.90;;;;;;1887056;74;21128;-74
2020/12/27 01:34:19;;;;;;;4.40;2.77;;;-2.70;99.90;;;;;;1893736;74;21058;-74
2020/12/27 01:36:45;;;;;;;6.90;3.50;;;-2.60;99.90;;;;;;1896420;74;21136;-74
2020/12/27 01:39:12;;;;;;;4.85;2.90;;;-2.60;99.90;;;;;;1892563;74;21502;-73
2020/12/27 01:41:38;;;;;;;4.42;3.20;;;-2.60;99.90;;;;;;1884236;74;21242;-74
2020/12/27 01:44:04;;;;;;;4.62;3.42;;;-2.70;99.90;;;;;;1882365;75;21184;-74
2020/12/27 01:46:30;;;;;;;6.28;3.77;;;-2.70;99.90;;;;;;1896415;74;21078;-73
2020/12/27 01:48:56;;;;;;;4.12;3.22;;;-2.70;99.90;;;;;;1898324;73;21070;-73
2020/12/27 01:51:22;;;;;;;12.88;3.85;;;-2.70;99.90;;;;;;1894158;74;21077;-74
2020/12/27 01:53:48;;;;;;;5.58;3.92;;;-2.70;99.90;;;;;;1888208;74;21071;-75
2020/12/27 01:56:14;;;;;;;5.33;3.52;;;-2.80;99.90;;;;;;1889518;74;21078;-74
2020/12/27 01:58:41;;;;;;;4.97;3.33;;;-2.80;99.90;;;;;;1905426;74;21059;-74
2020/12/27 02:01:07;;;;;;;5.83;3.65;;;-2.70;99.90;;;;;;1883843;74;21156;-74
2020/12/27 02:03:33;;;;;;;5.33;3.60;;;-2.70;99.90;;;;;;1893305;74;21112;-74
2020/12/27 02:05:59;;;;;;;7.80;3.72;;;-2.70;99.90;;;;;;1879369;74;21478;-73
2020/12/27 02:08:25;;;;;;;6.83;3.67;;;-2.80;99.90;;;;;;1890683;74;21565;-74
2020/12/27 02:10:51;;;;;;;7.37;3.55;;;-2.80;99.90;;;;;;1888485;74;21473;-74
2020/12/27 02:13:17;;;;;;;4.75;2.90;;;-2.90;99.90;;;;;;1896672;74;21471;-74
2020/12/27 02:15:43;;;;;;;4.25;3.08;;;-2.80;99.90;;;;;;1888787;74;21151;-75
2020/12/27 02:18:10;;;;;;;4.65;3.40;;;-2.90;99.90;;;;;;1905795;73;21070;-74
2020/12/27 02:20:36;;;;;;;7.15;3.75;;;-2.90;99.90;;;;;;1892591;74;21038;-73
2020/12/27 02:23:02;;;;;;;3.80;3.17;;;-2.90;99.90;;;;;;1907328;73;21148;-74
2020/12/27 02:25:28;;;;;;;7.83;4.00;;;-2.90;99.90;;;;;;1888468;74;21147;-74
2020/12/27 02:27:54;;;;;;;6.17;3.27;;;-2.90;99.90;;;;;;1892659;74;21082;-74
2020/12/27 02:30:20;;;;;;;3.35;2.90;;;-2.80;99.90;;;;;;1886552;74;21070;-73
2020/12/27 02:32:46;;;;;;;5.22;3.35;;;-2.80;99.90;;;;;;1887971;74;21038;-73
2020/12/27 02:35:12;;;;;;;4.67;2.55;;;-2.70;99.90;;;;;;1880495;74;21074;-74
2020/12/27 02:37:38;;;;;;;7.58;3.20;;;-2.80;99.90;;;;;;1892317;74;21069;-74
2020/12/27 02:40:05;;;;;;;5.72;3.25;;;-2.70;99.90;;;;;;1893095;74;21293;-74
2020/12/27 02:42:31;;;;;;;5.37;3.15;;;-2.80;99.90;;;;;;1882018;74;21161;-74
2020/12/27 02:47:31;;;;;;;4.80;3.17;;;-2.70;99.90;;;;;;1891508;74;21078;-75
2020/12/27 02:49:57;;;;;;;3.45;2.72;;;-2.70;99.90;;;;;;1881281;75;21051;-75
2020/12/27 02:52:23;;;;;;;7.12;3.62;;;-2.70;99.90;;;;;;1904334;74;21148;-74
2020/12/27 02:54:49;;;;;;;3.52;2.90;;;-2.70;99.90;;;;;;1883561;74;21078;-74
2020/12/27 02:57:15;;;;;;;7.08;3.10;;;-2.70;99.90;;;;;;1896206;74;21509;-75
2020/12/27 02:59:41;;;;;;;7.58;3.67;;;-2.60;99.90;;;;;;1898420;74;21490;-75
2020/12/27 03:02:07;;;;;;;6.65;3.55;;;-2.60;99.90;;;;;;1887649;74;21529;-74
2020/12/27 03:04:34;;;;;;;5.25;3.17;;;-2.70;99.90;;;;;;1899781;74;21470;-74
2020/12/27 03:07:00;;;;;;;7.03;3.55;;;-2.70;99.90;;;;;;1888532;74;21078;-75
2020/12/27 03:09:26;;;;;;;4.97;3.25;;;-2.60;99.90;;;;;;1882184;74;21066;-74
2020/12/27 03:11:52;;;;;;;4.92;3.35;;;-2.60;99.90;;;;;;1891777;74;21076;-74
2020/12/27 03:14:18;;;;;;;5.92;2.98;;;-2.50;99.90;;;;;;1892005;74;21139;-74
2020/12/27 03:16:44;;;;;;;6.00;3.33;;;-2.60;99.90;;;;;;1883950;74;21081;-75
2020/12/27 03:19:10;;;;;;;5.70;3.42;;;-2.60;99.90;;;;;;1887818;74;21061;-74
2020/12/27 03:21:36;;;;;;;5.00;2.72;;;-2.70;99.90;;;;;;1889757;74;21055;-74
2020/12/27 03:24:02;;;;;;;5.35;3.00;;;-2.60;99.90;;;;;;1896179;74;21072;-75
2020/12/27 03:26:29;;;;;;;6.03;3.00;;;-2.50;99.90;;;;;;1888872;73;21273;-75
2020/12/27 03:28:55;;;;;;;5.75;3.10;;;-2.50;99.90;;;;;;1882390;74;21143;-75
2020/12/27 03:31:21;;;;;;;5.60;3.40;;;-2.60;99.90;;;;;;1902600;74;21461;-75
2020/12/27 03:33:47;;;;;;;4.47;2.55;;;-2.60;99.90;;;;;;1889569;74;21577;-74
2020/12/27 03:36:13;;;;;;;4.80;3.08;;;-2.50;99.90;;;;;;1898961;74;21481;-75
2020/12/27 03:38:39;;;;;;;6.87;2.77;;;-2.60;99.90;;;;;;1890892;74;21148;-74
2020/12/27 03:41:05;;;;;;;4.25;2.95;;;-2.60;99.90;;;;;;1883335;75;21145;-74
2020/12/27 03:43:31;;;;;;;4.85;3.17;;;-2.60;99.90;;;;;;1887557;74;21074;-74
2020/12/27 03:45:58;;;;;;;9.15;2.85;;;-2.60;99.90;;;;;;1887804;74;21044;-74
2020/12/27 03:48:24;;;;;;;7.47;3.22;;;-2.50;99.90;;;;;;1894684;73;21254;-74
2020/12/27 03:50:50;;;;;;;4.92;2.83;;;-2.50;99.90;;;;;;1880419;75;21082;-74
2020/12/27 03:53:16;;;;;;;5.47;2.87;;;-2.50;99.90;;;;;;1882923;73;21132;-74
2020/12/27 03:55:42;;;;;;;10.18;3.35;;;-2.50;99.90;;;;;;1895679;74;21108;-73
2020/12/27 03:58:08;;;;;;;5.92;2.75;;;-2.40;99.90;;;;;;1890754;74;21069;-74
2020/12/27 04:00:34;;;;;;;4.05;2.35;;;-2.50;99.90;;;;;;1890120;73;21070;-73
2020/12/27 04:03:00;;;;;;;4.60;2.77;;;-2.50;99.90;;;;;;1881913;74;21265;-74
2020/12/27 04:05:27;;;;;;;4.42;2.47;;;-2.50;99.90;;;;;;1887888;73;21205;-75
2020/12/27 04:07:53;;;;;;;5.47;2.75;;;-2.50;99.90;;;;;;1886458;74;21128;-75
2020/12/27 04:10:19;;;;;;;3.08;2.37;;;-2.60;99.90;;;;;;1880423;74;21081;-74
2020/12/27 04:12:46;;;;;;;4.10;2.85;;;-2.70;99.90;;;;;;1890053;74;21074;-74
2020/12/27 04:15:13;;;;;;;6.47;2.45;;;-2.60;99.90;;;;;;1881080;74;21172;-74
2020/12/27 04:17:39;;;;;;;2.90;2.47;;;-2.60;99.90;;;;;;1886249;74;21140;-74
2020/12/27 04:20:05;;;;;;;5.12;2.60;;;-2.80;99.90;;;;;;1886190;74;21047;-74
2020/12/27 04:22:31;;;;;;;3.90;2.65;;;-2.80;99.90;;;;;;1895626;74;21079;-75
2020/12/27 04:24:57;;;;;;;4.10;2.70;;;-2.80;99.90;;;;;;1891210;74;21074;-74
2020/12/27 04:27:23;;;;;;;6.87;2.35;;;-2.80;99.90;;;;;;1881036;74;21156;-75
2020/12/27 04:29:49;;;;;;;3.95;2.35;;;-2.80;99.90;;;;;;1889032;74;21042;-74
2020/12/27 04:32:15;;;;;;;3.55;2.12;;;-2.80;99.90;;;;;;1883287;74;21535;-75
2020/12/27 04:34:42;;;;;;;6.12;3.37;;;-2.80;99.90;;;;;;1885578;74;21495;-74
2020/12/27 04:37:08;;;;;;;3.40;2.15;;;-2.80;99.90;;;;;;1899622;74;21469;-75
2020/12/27 04:39:34;;;;;;;6.58;2.85;;;-2.70;99.90;;;;;;1893968;74;21603;-75
2020/12/27 04:42:01;;;;;;;4.50;2.83;;;-2.80;99.90;;;;;;1892827;74;21376;-75
2020/12/27 04:44:27;;;;;;;5.00;2.60;;;-2.80;99.90;;;;;;1891988;74;21063;-75
2020/12/27 04:46:53;;;;;;;9.95;3.60;;;-2.80;99.90;;;;;;1886866;74;21127;-75
2020/12/27 04:49:19;;;;;;;3.77;2.37;;;-2.80;99.90;;;;;;1886542;73;21632;-75
2020/12/27 04:51:45;;;;;;;5.95;2.80;;;-2.80;99.90;;;;;;1890978;74;21552;-74
2020/12/27 04:54:11;;;;;;;5.30;2.92;;;-2.90;99.90;;;;;;1895783;73;21077;-75
2020/12/27 04:56:37;;;;;;;11.25;3.10;;;-2.90;99.90;;;;;;1886878;74;21141;-74
2020/12/27 04:59:03;;;;;;;7.83;3.37;;;-2.90;99.90;;;;;;1895108;74;21061;-74
2020/12/27 05:01:30;;;;;;;5.15;3.10;;;-2.80;99.90;;;;;;1895088;74;21065;-75
2020/12/27 05:03:56;;;;;;;3.98;2.90;;;-2.80;99.90;;;;;;1891364;74;21129;-74
2020/12/27 05:06:22;;;;;;;5.12;3.20;;;-2.80;99.90;;;;;;1913698;73;21152;-75
2020/12/27 05:08:48;;;;;;;6.12;2.80;;;-3.00;99.90;;;;;;1883348;74;21083;-74
2020/12/27 05:11:15;;;;;;;3.77;3.02;;;-2.90;99.90;;;;;;1888096;75;21475;-75
2020/12/27 05:13:41;;;;;;;10.05;3.98;;;-2.90;99.90;;;;;;1892879;74;21543;-75
2020/12/27 05:16:07;;;;;;;4.67;2.70;;;-2.90;99.90;;;;;;1895263;74;21538;-74
2020/12/27 05:18:33;;;;;;;4.40;2.55;;;-2.80;99.90;;;;;;1890881;73;21513;-75
2020/12/27 05:20:59;;;;;;;5.95;3.55;;;-2.90;99.90;;;;;;1904185;74;21071;-74
2020/12/27 05:23:29;;;;;;;6.50;3.08;;;-3.00;99.90;;;;;;1882584;74;21077;-74
2020/12/27 05:25:53;;;;;;;5.80;2.65;;;-3.00;99.90;;;;;;1887231;74;21086;-74
2020/12/27 05:28:19;;;;;;;3.87;3.02;;;-3.10;99.90;;;;;;1888110;74;21482;-74
2020/12/27 05:30:45;;;;;;;6.95;3.25;;;-3.10;99.90;;;;;;1900683;74;21557;-74
2020/12/27 05:33:11;;;;;;;5.03;3.17;;;-3.10;99.90;;;;;;1901862;74;21442;-73
2020/12/27 05:35:37;;;;;;;4.33;2.98;;;-3.10;99.90;;;;;;1900844;74;21279;-74
2020/12/27 05:38:04;;;;;;;4.62;3.00;;;-3.00;99.90;;;;;;1887118;74;21224;-74
2020/12/27 05:40:30;;;;;;;6.35;3.45;;;-3.10;99.90;;;;;;1890799;74;21061;-73
2020/12/27 05:42:56;;;;;;;3.08;2.67;;;-3.10;99.90;;;;;;1885841;74;21200;-74
2020/12/27 05:45:22;;;;;;;4.12;2.85;;;-3.10;99.90;;;;;;1880857;74;21043;-74
2020/12/27 05:47:48;;;;;;;5.35;3.12;;;-3.10;99.90;;;;;;1899566;74;21066;-74
2020/12/27 05:50:14;;;;;;;9.65;4.08;;;-3.10;99.90;;;;;;1889743;74;21148;-74
2020/12/27 05:52:40;;;;;;;4.80;3.08;;;-3.10;99.90;;;;;;1887474;74;21207;-75
2020/12/27 05:55:06;;;;;;;4.30;2.98;;;-3.00;99.90;;;;;;1880645;74;21081;-75
2020/12/27 05:57:33;;;;;;;6.10;3.37;;;-2.90;99.90;;;;;;1882454;74;21208;-74
2020/12/27 05:59:59;;;;;;;6.78;3.45;;;-2.90;99.90;;;;;;1896209;74;21551;-75
2020/12/27 06:02:25;;;;;;;6.05;3.72;;;-3.00;99.90;;;;;;1887797;74;21553;-75
2020/12/27 06:04:51;;;;;;;9.08;3.40;;;-3.00;99.90;;;;;;1890571;74;21567;-75
2020/12/27 06:07:17;;;;;;;5.92;3.50;;;-3.00;99.90;;;;;;1892397;74;21494;-74
2020/12/27 06:09:43;;;;;;;4.60;2.77;;;-3.00;99.90;;;;;;1906469;74;21059;-75
2020/12/27 06:12:09;;;;;;;4.15;3.12;;;-2.90;99.90;;;;;;1894204;74;21132;-74
2020/12/27 06:14:36;;;;;;;5.03;3.02;;;-2.80;99.90;;;;;;1887009;74;21193;-73
2020/12/27 06:17:02;;;;;;;5.03;3.08;;;-2.80;99.90;;;;;;1897770;73;21081;-74
2020/12/27 06:19:28;;;;;;;4.90;3.08;;;-2.80;99.90;;;;;;1886126;73;21077;-75
2020/12/27 06:21:54;;;;;;;4.97;3.02;;;-2.60;99.90;;;;;;1893120;74;21086;-74
2020/12/27 06:24:20;;;;;;;5.80;3.37;;;-2.70;99.90;;;;;;1889050;74;21039;-75
2020/12/27 06:26:46;;;;;;;4.65;3.22;;;-2.70;99.90;;;;;;1886660;74;21653;-75
2020/12/27 06:29:12;;;;;;;5.25;3.62;;;-2.70;99.90;;;;;;1890569;74;21522;-74
2020/12/27 06:31:39;;;;;;;4.97;3.10;;;-2.80;99.90;;;;;;1889108;74;21490;-74
2020/12/27 06:34:05;;;;;;;4.83;3.40;;;-2.90;99.90;;;;;;1890111;74;21491;-74
2020/12/27 06:36:31;;;;;;;5.95;2.92;;;-2.90;99.90;;;;;;1901720;74;21207;-75
2020/12/27 06:38:57;;;;;;;7.58;3.72;;;-2.90;99.90;;;;;;1881089;75;21075;-75
2020/12/27 06:41:23;;;;;;;3.77;2.92;;;-2.90;99.90;;;;;;1881933;74;21188;-74
2020/12/27 06:43:49;;;;;;;4.12;2.90;;;-2.80;99.90;;;;;;1889686;74;21129;-75
2020/12/27 06:46:15;;;;;;;7.65;2.70;;;-2.70;99.90;;;;;;1891319;74;21070;-75
2020/12/27 06:48:44;;;;;;;4.15;2.92;;;-2.60;99.90;;;;;;1897925;73;21129;-74
2020/12/27 06:51:09;;;;;;;4.00;2.62;;;-2.40;99.90;;;;;;1881187;74;21177;-75
2020/12/27 06:53:35;;;;;;;4.95;3.05;;;-2.30;99.90;;;;;;1893554;74;21078;-74
2020/12/27 06:56:02;;;;;;;5.65;3.10;;;-2.30;99.90;;;;;;1881659;74;21070;-74
2020/12/27 06:58:28;;;;;;;6.08;3.37;;;-2.50;99.90;;;;;;1883401;74;21047;-74
2020/12/27 07:00:54;;;;;;;5.72;3.55;;;-2.50;99.90;;;;;;1884105;74;21143;-74
2020/12/27 07:03:20;;;;;;;3.90;3.00;;;-2.50;99.90;;;;;;1891051;73;21077;-74
2020/12/27 07:05:46;;;;;;;6.45;2.90;;;-2.50;99.90;;;;;;1885728;74;21078;-75
2020/12/27 07:08:12;;;;;;;6.15;3.58;;;-2.60;99.90;;;;;;1884751;74;22534;-75
2020/12/27 07:10:39;;;;;;;2.85;2.58;;;-2.70;99.90;;;;;;1898445;74;21258;-73
2020/12/27 07:13:05;;;;;;;4.28;2.92;;;-2.70;99.90;;;;;;1898787;74;21043;-73
2020/12/27 07:15:31;;;;;;;4.60;3.05;;;-2.70;99.90;;;;;;1885335;74;21075;-74
2020/12/27 07:17:57;;;;;;;10.75;2.95;;;-2.60;99.90;;;;;;1890667;74;21073;-74
2020/12/27 07:20:23;;;;;;;5.95;3.05;;;-2.70;99.90;;;;;;1883691;74;21062;-74
2020/12/27 07:22:49;;;;;;;4.15;2.87;;;-2.70;99.90;;;;;;1882817;74;21043;-75
2020/12/27 07:25:15;;;;;;;4.50;3.08;;;-2.70;99.90;;;;;;1885802;74;21148;-75
2020/12/27 07:27:42;;;;;;;3.77;3.05;;;-2.70;99.90;;;;;;1890975;74;21062;-74
2020/12/27 07:30:08;;;;;;;4.15;3.25;;;-2.70;99.90;;;;;;1894979;74;21486;-73
2020/12/27 07:32:34;;;;;;;4.80;3.27;;;-2.60;99.90;;;;;;1882423;74;21556;-74
2020/12/27 07:35:00;;;;;;;3.83;2.75;;;-2.60;99.90;;;;;;1878152;75;21494;-74
2020/12/27 07:37:26;;;;;;;4.12;3.02;;;-2.70;99.90;;;;;;1886582;74;21042;-74
2020/12/27 07:39:52;;;;;;;12.68;3.20;;;-2.60;99.90;;;;;;1887154;74;21069;-74
2020/12/27 07:42:18;;;;;;;7.33;3.80;;;-2.70;99.90;;;;;;1888434;74;21062;-74
2020/12/27 07:44:44;;;;;;;7.40;3.27;;;-2.60;99.90;;;;;;1885691;74;21065;-74
2020/12/27 07:47:11;;;;;;;6.90;4.00;;;-2.60;99.90;;;;;;1892078;74;21069;-74
2020/12/27 07:49:37;;;;;;;5.37;3.77;;;-2.60;99.90;;;;;;1906196;74;21168;-74
2020/12/27 07:52:03;;;;;;;9.23;3.98;;;-2.50;99.90;;;;;;1890355;74;21121;-74
2020/12/27 07:54:29;;;;;;;6.37;4.20;;;-2.50;99.90;;;;;;1883552;74;21070;-74
2020/12/27 07:56:55;;;;;;;6.53;3.67;;;-2.50;99.90;;;;;;1889659;74;21204;-73
2020/12/27 07:59:21;;;;;;;6.30;3.40;;;-2.50;99.90;;;;;;1901416;74;21098;-76
2020/12/27 08:01:47;;;;;;;6.92;4.00;;;-2.30;99.90;;;;;;1902508;73;21136;-75
2020/12/27 08:04:13;;;;;;;8.15;4.15;;;-2.40;99.90;;;;;;1890352;74;21075;-75
2020/12/27 08:06:39;;;;;;;4.97;3.40;;;-2.40;99.90;;;;;;1898221;74;21077;-75
2020/12/27 08:09:06;;;;;;;6.67;4.03;;;-2.30;99.90;;;;;;1895702;74;21082;-75
2020/12/27 08:11:32;;;;;;;6.42;3.87;;;-2.20;99.90;;;;;;1890923;73;21157;-73
2020/12/27 08:13:58;;;;;;;11.10;4.15;;;-2.10;99.90;;;;;;1895448;74;21155;-74
2020/12/27 08:16:24;;;;;;;6.17;4.15;;;-2.10;99.90;;;;;;1890636;74;21069;-72
2020/12/27 08:18:50;;;;;;;7.37;3.92;;;-2.10;99.90;;;;;;1885216;74;21145;-73
2020/12/27 08:21:16;;;;;;;3.95;3.55;;;-2.10;99.90;;;;;;1887582;73;21136;-71
2020/12/27 08:23:45;;;;;;;7.60;3.83;;;-2.10;99.90;;;;;;1886882;74;21207;-75
2020/12/27 08:26:10;;;;;;;11.70;4.80;;;-2.00;99.90;;;;;;1890949;74;21058;-73
2020/12/27 08:28:36;;;;;;;15.95;6.67;;;-1.80;99.90;;;;;;1894602;74;21074;-74
2020/12/27 08:31:02;;;;;;;11.05;5.33;;;-1.80;99.90;;;;;;1900499;74;21152;-74
2020/12/27 08:33:29;;;;;;;7.70;4.85;;;-1.70;99.90;;;;;;1891044;73;21043;-73
2020/12/27 08:35:56;;;;;;;8.45;4.92;;;-1.60;99.90;;;;;;1888704;74;21065;-72
2020/12/27 08:38:22;;;;;;;8.15;4.15;;;-1.60;99.90;;;;;;1884400;74;21133;-72
2020/12/27 08:40:48;;;;;;;8.48;4.35;;;-1.50;99.90;;;;;;1894717;74;21078;-72
2020/12/27 08:43:14;;;;;;;5.58;4.22;;;-1.40;99.90;;;;;;1895139;73;21080;-72
2020/12/27 08:45:40;;;;;;;6.72;4.62;;;-1.40;99.90;;;;;;1887922;74;21065;-72
2020/12/27 08:48:07;;;;;;;7.42;4.62;;;-1.30;99.90;;;;;;1887769;74;21082;-72
2020/12/27 08:50:33;;;;;;;7.37;4.65;;;-1.20;99.90;;;;;;1883342;74;21069;-72
2020/12/27 08:52:59;;;;;;;6.75;4.00;;;-1.30;99.90;;;;;;1899114;74;21204;-72
2020/12/27 08:55:27;;;;;;;6.28;4.00;;;-1.50;99.90;;;;;;1879668;74;21073;-73
2020/12/27 08:57:53;;;;;;;7.30;4.70;;;-1.50;99.90;;;;;;1884032;74;21117;-74
2020/12/27 09:00:20;;;;;;;4.42;3.35;;;-1.50;99.90;;;;;;1888360;74;21153;-74
2020/12/27 09:02:46;;;;;;;5.85;3.85;;;-1.30;99.90;;;;;;1890966;74;21055;-72
2020/12/27 09:05:12;;;;;;;5.47;4.03;;;-1.30;99.90;;;;;;1891877;74;21524;-72
2020/12/27 09:07:38;;;;;;;7.65;3.70;;;-1.20;99.90;;;;;;1902747;73;21461;-75
2020/12/27 09:10:04;;;;;;;6.20;3.95;;;-1.20;99.90;;;;;;1886348;74;21473;-74
2020/12/27 09:12:30;;;;;;;3.75;2.95;;;-0.90;99.90;;;;;;1894756;74;21435;-69
2020/12/27 09:14:56;;;;;;;11.15;4.10;;;-0.70;99.90;;;;;;1882322;74;21147;-73
2020/12/27 09:17:23;;;;;;;5.03;3.72;;;-0.60;99.90;;;;;;1889453;74;21143;-74
2020/12/27 09:19:49;;;;;;;6.28;3.60;;;-0.40;99.90;;;;;;1889151;74;21073;-73
2020/12/27 09:22:15;;;;;;;13.13;4.25;;;-0.20;99.90;;;;;;1885080;74;21140;-74
2020/12/27 09:24:41;;;;;;;7.55;3.10;;;-0.10;99.90;;;;;;1890791;74;21050;-73
2020/12/27 09:27:07;;;;;;;8.68;3.27;;;0.00;99.90;;;;;;1880077;74;21144;-74
2020/12/27 09:29:33;;;;;;;3.70;2.70;;;0.30;99.90;;;;;;1882626;73;21066;-73
2020/12/27 09:31:59;;;;;;;10.65;3.12;;;0.40;99.90;;;;;;1893348;74;21135;-74
2020/12/27 09:34:26;;;;;;;4.00;2.90;;;0.30;99.90;;;;;;1886233;75;21078;-74
2020/12/27 09:36:52;;;;;;;5.03;3.33;;;0.50;99.90;;;;;;1887414;74;21139;-74
2020/12/27 09:39:18;;;;;;;6.45;3.55;;;0.30;99.90;;;;;;1892623;74;21082;-73
2020/12/27 09:41:44;;;;;;;3.50;2.72;;;0.40;99.90;;;;;;1896064;74;21039;-75
2020/12/27 09:44:10;;;;;;;9.63;5.33;;;0.30;99.90;;;;;;1892296;74;21082;-72
2020/12/27 09:46:37;;;;;;;5.80;4.00;;;-0.10;99.90;;;;;;1889878;74;21117;-73
2020/12/27 09:49:03;;;;;;;11.80;4.87;;;-0.10;99.90;;;;;;1891469;74;21031;-72
2020/12/27 09:51:29;;;;;;;5.28;4.17;;;-0.20;99.90;;;;;;1890925;74;21082;-73
2020/12/27 09:53:55;;;;;;;14.25;4.12;;;-0.30;99.90;;;;;;1898238;74;21065;-72
2020/12/27 09:56:21;;;;;;;9.45;4.75;;;-0.40;99.90;;;;;;1884608;74;21074;-74
2020/12/27 09:58:47;;;;;;;4.70;3.47;;;-0.20;99.90;;;;;;1889711;74;21157;-72
2020/12/27 10:01:13;;;;;;;10.45;4.80;;;0.10;99.90;;;;;;1894400;73;21144;-74
2020/12/27 10:03:39;;;;;;;13.32;4.45;;;0.40;99.90;;;;;;1897272;74;21136;-74
2020/12/27 10:06:06;;;;;;;5.20;3.25;;;0.40;99.90;;;;;;1900477;74;21191;-72
2020/12/27 10:08:32;;;;;;;7.00;3.60;;;0.50;99.90;;;;;;1880144;74;21078;-71
2020/12/27 10:10:58;;;;;;;9.63;3.50;;;0.50;99.90;;;;;;1896881;74;21279;-74
2020/12/27 10:13:24;;;;;;;5.22;3.10;;;0.40;99.90;;;;;;1887411;74;21179;-72
2020/12/27 10:15:50;;;;;;;6.25;2.98;;;0.60;99.90;;;;;;1913106;74;21502;-74
2020/12/27 10:18:16;;;;;;;5.08;3.37;;;0.50;99.90;;;;;;1892958;74;21470;-77
2020/12/27 10:20:42;;;;;;;7.10;3.15;;;0.50;99.90;;;;;;1882548;73;21667;-75
2020/12/27 10:23:08;;;;;;;5.40;3.30;;;0.60;99.90;;;;;;1895774;74;21113;-77
2020/12/27 10:25:34;;;;;;;8.18;3.27;;;0.70;99.90;;;;;;1889779;74;21140;-76
2020/12/27 10:28:01;;;;;;;7.72;3.37;;;0.70;99.90;;;;;;1889914;74;21140;-74
2020/12/27 10:30:27;;;;;;;5.92;3.50;;;0.60;99.90;;;;;;1898808;74;21046;-74
2020/12/27 10:32:53;;;;;;;6.03;3.75;;;0.50;99.90;;;;;;1888449;74;21061;-77
2020/12/27 10:35:20;;;;;;;5.55;3.95;;;0.40;99.90;;;;;;1887617;74;21065;-76
2020/12/27 10:37:46;;;;;;;10.13;4.03;;;0.50;99.90;;;;;;1889691;74;21143;-76
2020/12/27 10:40:13;;;;;;;6.50;4.10;;;0.60;99.90;;;;;;1885158;75;21077;-75
2020/12/27 10:42:39;;;;;;;6.08;3.92;;;0.50;99.90;;;;;;1890981;74;21082;-75
2020/12/27 10:45:05;;;;;;;6.20;3.87;;;0.40;99.90;;;;;;1912896;74;21087;-75
2020/12/27 10:47:31;;;;;;;7.03;3.85;;;0.50;99.90;;;;;;1893921;74;21544;-75
2020/12/27 10:49:57;;;;;;;5.60;3.40;;;0.40;99.90;;;;;;1882825;74;21428;-76
2020/12/27 10:52:23;;;;;;;7.97;4.80;;;0.50;99.90;;;;;;1887049;74;21446;-75
2020/12/27 10:54:49;;;;;;;5.28;3.22;;;0.60;99.90;;;;;;1889495;74;21505;-76
2020/12/27 10:57:15;;;;;;;13.75;4.78;;;0.80;99.90;;;;;;1892731;73;21136;-76
2020/12/27 10:59:42;;;;;;;12.10;5.00;;;0.80;99.90;;;;;;1889375;74;21144;-73
2020/12/27 11:02:08;;;;;;;9.73;3.50;;;0.80;99.90;;;;;;1896493;74;21039;-75
2020/12/27 11:04:34;;;;;;;4.40;3.27;;;0.80;99.90;;;;;;1902047;74;21164;-72
2020/12/27 11:07:00;;;;;;;6.00;3.85;;;0.80;99.90;;;;;;1894171;74;21070;-75
2020/12/27 11:09:26;;;;;;;5.37;3.65;;;0.90;99.90;;;;;;1891533;74;21179;-76
2020/12/27 11:11:52;;;;;;;8.33;4.28;;;0.90;99.90;;;;;;1884061;73;21069;-74
2020/12/27 11:14:19;;;;;;;12.20;4.00;;;1.00;99.90;;;;;;1887938;74;21529;-74
2020/12/27 11:16:45;;;;;;;4.05;3.22;;;1.10;99.90;;;;;;1889609;74;21200;-75
2020/12/27 11:19:11;;;;;;;7.92;3.72;;;1.20;99.90;;;;;;1883218;74;21181;-76
2020/12/27 11:21:37;;;;;;;7.97;3.60;;;1.20;99.90;;;;;;1901774;74;21048;-75
2020/12/27 11:24:03;;;;;;;6.70;3.40;;;1.30;99.90;;;;;;1896584;73;21667;-75
2020/12/27 11:26:30;;;;;;;7.90;3.33;;;1.40;99.90;;;;;;1883591;74;21047;-74
2020/12/27 11:28:56;;;;;;;4.87;3.20;;;1.50;99.90;;;;;;1887533;74;21156;-71
2020/12/27 11:31:22;;;;;;;6.00;3.20;;;1.50;99.90;;;;;;1892199;74;21227;-75
2020/12/27 11:33:48;;;;;;;5.35;3.62;;;1.60;99.90;;;;;;1896684;74;21126;-74
2020/12/27 11:36:14;;;;;;;7.92;3.45;;;1.60;99.90;;;;;;1894724;74;21066;-74
2020/12/27 11:38:40;;;;;;;6.08;3.22;;;1.70;99.90;;;;;;1881245;74;21071;-73
2020/12/27 11:41:06;;;;;;;4.87;2.83;;;1.60;99.90;;;;;;1894238;74;21225;-75
2020/12/27 11:43:32;;;;;;;4.70;3.20;;;1.60;99.90;;;;;;1902390;74;21554;-74
2020/12/27 11:46:01;;;;;;;4.40;3.15;;;1.60;99.90;;;;;;1882195;74;21543;-74
2020/12/27 11:48:26;;;;;;;10.18;3.62;;;1.60;99.90;;;;;;1887309;74;21167;-74
2020/12/27 11:50:53;;;;;;;3.15;2.45;;;1.80;99.90;;;;;;1886780;74;21039;-75
2020/12/27 11:53:19;;;;;;;6.42;2.95;;;1.70;99.90;;;;;;1901028;74;21083;-74
2020/12/27 11:55:45;;;;;;;8.25;2.80;;;1.70;99.90;;;;;;1897737;74;21046;-77
2020/12/27 11:58:11;;;;;;;4.05;2.67;;;1.90;99.90;;;;;;1886323;74;21140;-75
2020/12/27 12:00:37;;;;;;;7.00;2.67;;;1.90;99.90;;;;;;1853129;75;21133;-78
2020/12/27 12:03:03;;;;;;;9.08;3.20;;;2.00;99.90;;;;;;1895254;74;21075;-74
2020/12/27 12:05:29;;;;;;;8.68;3.20;;;2.10;99.90;;;;;;1891395;73;21135;-75
2020/12/27 12:07:55;;;;;;;4.55;2.60;;;2.20;99.90;;;;;;1888497;73;21144;-74
2020/12/27 12:10:22;;;;;;;7.20;2.65;;;2.30;99.90;;;;;;1893657;73;21204;-75
2020/12/27 12:12:48;;;;;;;7.50;3.00;;;2.20;99.90;;;;;;1879092;75;21087;-75
2020/12/27 12:15:14;;;;;;;4.28;2.60;;;2.20;99.90;;;;;;1894542;74;21082;-75
2020/12/27 12:17:40;;;;;;;3.95;2.80;;;2.20;99.90;;;;;;1886571;74;21075;-76
2020/12/27 12:20:06;;;;;;;3.90;2.65;;;2.20;99.90;;;;;;1898116;74;21175;-75
2020/12/27 12:22:32;;;;;;;7.12;2.92;;;2.20;99.90;;;;;;1885981;74;21039;-76
2020/12/27 12:24:58;;;;;;;9.50;3.08;;;2.30;99.90;;;;;;1881834;74;21065;-74
2020/12/27 12:27:25;;;;;;;4.05;2.40;;;2.20;99.90;;;;;;1885531;73;21069;-75
2020/12/27 12:29:51;;;;;;;3.37;2.20;;;2.30;99.90;;;;;;1887768;74;21070;-75
2020/12/27 12:32:17;;;;;;;2.65;2.10;;;2.30;99.90;;;;;;1885636;74;21200;-76
2020/12/27 12:34:43;;;;;;;5.95;2.30;;;2.40;99.90;;;;;;1894122;74;21063;-75
2020/12/27 12:37:09;;;;;;;4.75;2.98;;;2.50;99.90;;;;;;1885892;74;21070;-76
2020/12/27 12:39:35;;;;;;;10.25;2.50;;;2.50;99.90;;;;;;1883301;74;21093;-77
2020/12/27 12:42:02;;;;;;;7.05;2.08;;;2.50;99.90;;;;;;1893889;74;21604;-75
2020/12/27 12:44:28;;;;;;;4.15;3.15;;;2.50;99.90;;;;;;1880310;74;21465;-75